sensor_id;sensor_type;location;lat;lon;timestamp;pressure;altitude;pressure_sealevel;temperature
15680;BMP180;15488;48.114;11.532;2023-07-22T00:02:05;95390.00;;;22.90
15680;BMP180;15488;48.114;11.532;2023-07-22T00:04:34;95389.00;;;22.90
15680;BMP180;15488;48.114;11.532;2023-07-22T00:07:02;95388.00;;;22.90
15680;BMP180;15488;48.114;11.532;2023-07-22T00:09:29;95391.00;;;23.00
15680;BMP180;15488;48.114;11.532;2023-07-22T00:11:59;95388.00;;;23.00
15680;BMP180;15488;48.114;11.532;2023-07-22T00:14:27;95384.00;;;23.00
15680;BMP180;15488;48.114;11.532;2023-07-22T00:16:54;95383.00;;;23.00
15680;BMP180;15488;48.114;11.532;2023-07-22T00:19:22;95384.00;;;22.90
15680;BMP180;15488;48.114;11.532;2023-07-22T00:21:51;95382.00;;;22.90
15680;BMP180;15488;48.114;11.532;2023-07-22T00:24:19;95385.00;;;22.90
15680;BMP180;15488;48.114;11.532;2023-07-22T00:26:48;95386.00;;;22.90
15680;BMP180;15488;48.114;11.532;2023-07-22T00:29:16;95388.00;;;23.00
15680;BMP180;15488;48.114;11.532;2023-07-22T00:31:44;95388.00;;;23.00
15680;BMP180;15488;48.114;11.532;2023-07-22T00:34:11;95378.00;;;23.00
15680;BMP180;15488;48.114;11.532;2023-07-22T00:36:39;95371.00;;;22.90
15680;BMP180;15488;48.114;11.532;2023-07-22T00:39:08;95371.00;;;22.90
15680;BMP180;15488;48.114;11.532;2023-07-22T00:41:35;95368.00;;;22.90
15680;BMP180;15488;48.114;11.532;2023-07-22T00:44:03;95362.00;;;22.90
15680;BMP180;15488;48.114;11.532;2023-07-22T00:46:30;95365.00;;;22.90
15680;BMP180;15488;48.114;11.532;2023-07-22T00:48:58;95357.00;;;22.90
15680;BMP180;15488;48.114;11.532;2023-07-22T00:51:25;95360.00;;;22.90
15680;BMP180;15488;48.114;11.532;2023-07-22T00:53:53;95356.00;;;22.90
15680;BMP180;15488;48.114;11.532;2023-07-22T00:56:22;95360.00;;;22.90
15680;BMP180;15488;48.114;11.532;2023-07-22T00:58:50;95353.00;;;22.90
15680;BMP180;15488;48.114;11.532;2023-07-22T01:01:17;95350.00;;;22.90
15680;BMP180;15488;48.114;11.532;2023-07-22T01:03:45;95346.00;;;22.90
15680;BMP180;15488;48.114;11.532;2023-07-22T01:06:13;95337.00;;;22.80
15680;BMP180;15488;48.114;11.532;2023-07-22T01:08:43;95334.00;;;22.90
15680;BMP180;15488;48.114;11.532;2023-07-22T01:11:10;95338.00;;;22.80
15680;BMP180;15488;48.114;11.532;2023-07-22T01:13:40;95336.00;;;22.80
15680;BMP180;15488;48.114;11.532;2023-07-22T01:16:07;95335.00;;;22.80
15680;BMP180;15488;48.114;11.532;2023-07-22T01:18:35;95335.00;;;22.80
15680;BMP180;15488;48.114;11.532;2023-07-22T01:21:02;95332.00;;;22.80
15680;BMP180;15488;48.114;11.532;2023-07-22T01:23:32;95336.00;;;22.80
15680;BMP180;15488;48.114;11.532;2023-07-22T01:25:59;95342.00;;;22.80
15680;BMP180;15488;48.114;11.532;2023-07-22T01:28:27;95339.00;;;22.80
15680;BMP180;15488;48.114;11.532;2023-07-22T01:30:55;95350.00;;;22.80
15680;BMP180;15488;48.114;11.532;2023-07-22T01:33:22;95350.00;;;22.70
15680;BMP180;15488;48.114;11.532;2023-07-22T01:35:49;95351.00;;;22.70
15680;BMP180;15488;48.114;11.532;2023-07-22T01:38:18;95347.00;;;22.70
15680;BMP180;15488;48.114;11.532;2023-07-22T01:40:46;95344.00;;;22.70
15680;BMP180;15488;48.114;11.532;2023-07-22T01:43:14;95349.00;;;22.70
15680;BMP180;15488;48.114;11.532;2023-07-22T01:45:41;95348.00;;;22.70
15680;BMP180;15488;48.114;11.532;2023-07-22T01:48:09;95349.00;;;22.70
15680;BMP180;15488;48.114;11.532;2023-07-22T01:50:37;95353.00;;;22.70
15680;BMP180;15488;48.114;11.532;2023-07-22T01:53:04;95357.00;;;22.70
15680;BMP180;15488;48.114;11.532;2023-07-22T01:55:32;95351.00;;;22.70
15680;BMP180;15488;48.114;11.532;2023-07-22T01:58:01;95351.00;;;22.70
15680;BMP180;15488;48.114;11.532;2023-07-22T02:00:28;95350.00;;;22.70
15680;BMP180;15488;48.114;11.532;2023-07-22T02:02:56;95350.00;;;22.70
15680;BMP180;15488;48.114;11.532;2023-07-22T02:05:24;95353.00;;;22.80
15680;BMP180;15488;48.114;11.532;2023-07-22T02:07:53;95359.00;;;22.80
15680;BMP180;15488;48.114;11.532;2023-07-22T02:10:21;95357.00;;;22.80
15680;BMP180;15488;48.114;11.532;2023-07-22T02:12:48;95357.00;;;22.80
15680;BMP180;15488;48.114;11.532;2023-07-22T02:15:18;95356.00;;;22.80
15680;BMP180;15488;48.114;11.532;2023-07-22T02:17:47;95367.00;;;22.90
15680;BMP180;15488;48.114;11.532;2023-07-22T02:20:15;95361.00;;;22.90
15680;BMP180;15488;48.114;11.532;2023-07-22T02:22:43;95365.00;;;22.90
15680;BMP180;15488;48.114;11.532;2023-07-22T02:25:10;95354.00;;;22.80
15680;BMP180;15488;48.114;11.532;2023-07-22T02:27:39;95364.00;;;22.90
15680;BMP180;15488;48.114;11.532;2023-07-22T02:30:08;95362.00;;;22.90
15680;BMP180;15488;48.114;11.532;2023-07-22T02:32:39;95361.00;;;22.90
15680;BMP180;15488;48.114;11.532;2023-07-22T02:35:08;95363.00;;;22.90
15680;BMP180;15488;48.114;11.532;2023-07-22T02:37:38;95370.00;;;22.90
15680;BMP180;15488;48.114;11.532;2023-07-22T02:40:06;95362.00;;;22.80
15680;BMP180;15488;48.114;11.532;2023-07-22T02:42:37;95365.00;;;22.80
15680;BMP180;15488;48.114;11.532;2023-07-22T02:45:05;95370.00;;;22.80
15680;BMP180;15488;48.114;11.532;2023-07-22T02:47:34;95366.00;;;22.80
15680;BMP180;15488;48.114;11.532;2023-07-22T02:50:03;95371.00;;;22.70
15680;BMP180;15488;48.114;11.532;2023-07-22T02:52:31;95358.00;;;22.70
15680;BMP180;15488;48.114;11.532;2023-07-22T02:55:07;95362.00;;;22.70
15680;BMP180;15488;48.114;11.532;2023-07-22T02:57:36;95358.00;;;22.70
15680;BMP180;15488;48.114;11.532;2023-07-22T03:00:05;95369.00;;;22.70
15680;BMP180;15488;48.114;11.532;2023-07-22T03:02:34;95368.00;;;22.70
15680;BMP180;15488;48.114;11.532;2023-07-22T03:05:04;95370.00;;;22.70
15680;BMP180;15488;48.114;11.532;2023-07-22T03:07:34;95376.00;;;22.70
15680;BMP180;15488;48.114;11.532;2023-07-22T03:10:01;95367.00;;;22.70
15680;BMP180;15488;48.114;11.532;2023-07-22T03:12:29;95366.00;;;22.70
15680;BMP180;15488;48.114;11.532;2023-07-22T03:14:56;95376.00;;;22.70
15680;BMP180;15488;48.114;11.532;2023-07-22T03:17:24;95370.00;;;22.70
15680;BMP180;15488;48.114;11.532;2023-07-22T03:19:51;95367.00;;;22.70
15680;BMP180;15488;48.114;11.532;2023-07-22T03:22:20;95370.00;;;22.70
15680;BMP180;15488;48.114;11.532;2023-07-22T03:24:48;95380.00;;;22.70
15680;BMP180;15488;48.114;11.532;2023-07-22T03:27:15;95371.00;;;22.70
15680;BMP180;15488;48.114;11.532;2023-07-22T03:29:43;95362.00;;;22.60
15680;BMP180;15488;48.114;11.532;2023-07-22T03:32:20;95371.00;;;22.60
15680;BMP180;15488;48.114;11.532;2023-07-22T03:34:50;95369.00;;;22.60
15680;BMP180;15488;48.114;11.532;2023-07-22T03:37:19;95369.00;;;22.60
15680;BMP180;15488;48.114;11.532;2023-07-22T03:39:47;95377.00;;;22.60
15680;BMP180;15488;48.114;11.532;2023-07-22T03:42:14;95378.00;;;22.60
15680;BMP180;15488;48.114;11.532;2023-07-22T03:44:42;95386.00;;;22.70
15680;BMP180;15488;48.114;11.532;2023-07-22T03:47:09;95383.00;;;22.60
15680;BMP180;15488;48.114;11.532;2023-07-22T03:49:37;95385.00;;;22.60
15680;BMP180;15488;48.114;11.532;2023-07-22T03:52:05;95384.00;;;22.70
15680;BMP180;15488;48.114;11.532;2023-07-22T03:54:34;95377.00;;;22.70
15680;BMP180;15488;48.114;11.532;2023-07-22T03:57:02;95384.00;;;22.70
15680;BMP180;15488;48.114;11.532;2023-07-22T03:59:29;95385.00;;;22.70
15680;BMP180;15488;48.114;11.532;2023-07-22T04:01:57;95388.00;;;22.70
15680;BMP180;15488;48.114;11.532;2023-07-22T04:04:24;95382.00;;;22.70
15680;BMP180;15488;48.114;11.532;2023-07-22T04:06:52;95385.00;;;22.70
15680;BMP180;15488;48.114;11.532;2023-07-22T04:09:19;95388.00;;;22.70
15680;BMP180;15488;48.114;11.532;2023-07-22T04:11:51;95396.00;;;22.70
15680;BMP180;15488;48.114;11.532;2023-07-22T04:14:19;95399.00;;;22.70
15680;BMP180;15488;48.114;11.532;2023-07-22T04:16:46;95400.00;;;22.70
15680;BMP180;15488;48.114;11.532;2023-07-22T04:19:15;95392.00;;;22.70
15680;BMP180;15488;48.114;11.532;2023-07-22T04:21:45;95405.00;;;22.70
15680;BMP180;15488;48.114;11.532;2023-07-22T04:24:12;95404.00;;;22.60
15680;BMP180;15488;48.114;11.532;2023-07-22T04:26:43;95400.00;;;22.60
15680;BMP180;15488;48.114;11.532;2023-07-22T04:29:12;95410.00;;;22.60
15680;BMP180;15488;48.114;11.532;2023-07-22T04:31:40;95405.00;;;22.60
15680;BMP180;15488;48.114;11.532;2023-07-22T04:34:07;95407.00;;;22.60
15680;BMP180;15488;48.114;11.532;2023-07-22T04:36:38;95399.00;;;22.60
15680;BMP180;15488;48.114;11.532;2023-07-22T04:39:09;95389.00;;;22.60
15680;BMP180;15488;48.114;11.532;2023-07-22T04:41:36;95392.00;;;22.70
15680;BMP180;15488;48.114;11.532;2023-07-22T04:44:05;95385.00;;;22.70
15680;BMP180;15488;48.114;11.532;2023-07-22T04:46:34;95392.00;;;22.70
15680;BMP180;15488;48.114;11.532;2023-07-22T04:49:01;95396.00;;;22.70
15680;BMP180;15488;48.114;11.532;2023-07-22T04:51:29;95396.00;;;22.70
15680;BMP180;15488;48.114;11.532;2023-07-22T04:53:58;95405.00;;;22.80
15680;BMP180;15488;48.114;11.532;2023-07-22T04:56:25;95399.00;;;22.80
15680;BMP180;15488;48.114;11.532;2023-07-22T04:58:53;95407.00;;;22.80
15680;BMP180;15488;48.114;11.532;2023-07-22T05:01:20;95409.00;;;22.80
15680;BMP180;15488;48.114;11.532;2023-07-22T05:03:50;95394.00;;;22.70
15680;BMP180;15488;48.114;11.532;2023-07-22T05:06:21;95398.00;;;22.80
15680;BMP180;15488;48.114;11.532;2023-07-22T05:08:50;95395.00;;;22.80
15680;BMP180;15488;48.114;11.532;2023-07-22T05:11:17;95393.00;;;22.80
15680;BMP180;15488;48.114;11.532;2023-07-22T05:13:45;95400.00;;;22.80
15680;BMP180;15488;48.114;11.532;2023-07-22T05:16:15;95415.00;;;22.80
15680;BMP180;15488;48.114;11.532;2023-07-22T05:18:42;95417.00;;;22.90
15680;BMP180;15488;48.114;11.532;2023-07-22T05:21:11;95419.00;;;22.90
15680;BMP180;15488;48.114;11.532;2023-07-22T05:23:39;95419.00;;;23.00
15680;BMP180;15488;48.114;11.532;2023-07-22T05:26:08;95412.00;;;23.00
15680;BMP180;15488;48.114;11.532;2023-07-22T05:28:36;95417.00;;;23.00
15680;BMP180;15488;48.114;11.532;2023-07-22T05:31:03;95410.00;;;23.10
15680;BMP180;15488;48.114;11.532;2023-07-22T05:33:31;95407.00;;;23.10
15680;BMP180;15488;48.114;11.532;2023-07-22T05:35:59;95400.00;;;23.20
15680;BMP180;15488;48.114;11.532;2023-07-22T05:38:27;95406.00;;;23.20
15680;BMP180;15488;48.114;11.532;2023-07-22T05:40:57;95410.00;;;23.20
15680;BMP180;15488;48.114;11.532;2023-07-22T05:43:27;95404.00;;;23.30
15680;BMP180;15488;48.114;11.532;2023-07-22T05:45:54;95405.00;;;23.30
15680;BMP180;15488;48.114;11.532;2023-07-22T05:48:22;95408.00;;;23.30
15680;BMP180;15488;48.114;11.532;2023-07-22T05:50:49;95408.00;;;23.40
15680;BMP180;15488;48.114;11.532;2023-07-22T05:53:17;95412.00;;;23.40
15680;BMP180;15488;48.114;11.532;2023-07-22T05:55:46;95416.00;;;23.50
15680;BMP180;15488;48.114;11.532;2023-07-22T05:58:17;95416.00;;;23.50
15680;BMP180;15488;48.114;11.532;2023-07-22T06:00:48;95422.00;;;23.50
15680;BMP180;15488;48.114;11.532;2023-07-22T06:03:20;95420.00;;;23.50
15680;BMP180;15488;48.114;11.532;2023-07-22T06:05:51;95418.00;;;23.60
15680;BMP180;15488;48.114;11.532;2023-07-22T06:08:18;95415.00;;;23.70
15680;BMP180;15488;48.114;11.532;2023-07-22T06:10:47;95423.00;;;23.70
15680;BMP180;15488;48.114;11.532;2023-07-22T06:13:14;95421.00;;;23.70
15680;BMP180;15488;48.114;11.532;2023-07-22T06:15:42;95438.00;;;23.70
15680;BMP180;15488;48.114;11.532;2023-07-22T06:18:09;95434.00;;;23.70
15680;BMP180;15488;48.114;11.532;2023-07-22T06:20:37;95434.00;;;23.70
15680;BMP180;15488;48.114;11.532;2023-07-22T06:23:06;95447.00;;;23.70
15680;BMP180;15488;48.114;11.532;2023-07-22T06:25:36;95443.00;;;23.80
15680;BMP180;15488;48.114;11.532;2023-07-22T06:28:05;95438.00;;;23.80
15680;BMP180;15488;48.114;11.532;2023-07-22T06:30:33;95446.00;;;23.80
15680;BMP180;15488;48.114;11.532;2023-07-22T06:33:00;95445.00;;;23.80
15680;BMP180;15488;48.114;11.532;2023-07-22T06:35:28;95449.00;;;23.80
15680;BMP180;15488;48.114;11.532;2023-07-22T06:37:56;95450.00;;;23.90
15680;BMP180;15488;48.114;11.532;2023-07-22T06:40:24;95443.00;;;23.90
15680;BMP180;15488;48.114;11.532;2023-07-22T06:42:54;95449.00;;;23.90
15680;BMP180;15488;48.114;11.532;2023-07-22T06:45:23;95443.00;;;24.00
15680;BMP180;15488;48.114;11.532;2023-07-22T06:47:51;95448.00;;;24.10
15680;BMP180;15488;48.114;11.532;2023-07-22T06:50:18;95447.00;;;24.10
15680;BMP180;15488;48.114;11.532;2023-07-22T06:52:46;95452.00;;;24.20
15680;BMP180;15488;48.114;11.532;2023-07-22T06:55:13;95451.00;;;24.20
15680;BMP180;15488;48.114;11.532;2023-07-22T06:57:41;95454.00;;;24.20
15680;BMP180;15488;48.114;11.532;2023-07-22T07:00:09;95458.00;;;24.30
15680;BMP180;15488;48.114;11.532;2023-07-22T07:02:38;95445.00;;;24.30
15680;BMP180;15488;48.114;11.532;2023-07-22T07:05:06;95448.00;;;24.40
15680;BMP180;15488;48.114;11.532;2023-07-22T07:07:34;95451.00;;;24.40
15680;BMP180;15488;48.114;11.532;2023-07-22T07:10:01;95450.00;;;24.50
15680;BMP180;15488;48.114;11.532;2023-07-22T07:12:29;95449.00;;;24.50
15680;BMP180;15488;48.114;11.532;2023-07-22T07:14:56;95448.00;;;24.60
15680;BMP180;15488;48.114;11.532;2023-07-22T07:17:23;95459.00;;;24.60
15680;BMP180;15488;48.114;11.532;2023-07-22T07:19:53;95453.00;;;24.60
15680;BMP180;15488;48.114;11.532;2023-07-22T07:22:20;95450.00;;;24.70
15680;BMP180;15488;48.114;11.532;2023-07-22T07:24:48;95454.00;;;24.70
15680;BMP180;15488;48.114;11.532;2023-07-22T07:27:15;95451.00;;;24.70
15680;BMP180;15488;48.114;11.532;2023-07-22T07:29:42;95461.00;;;24.70
15680;BMP180;15488;48.114;11.532;2023-07-22T07:32:10;95466.00;;;24.70
15680;BMP180;15488;48.114;11.532;2023-07-22T07:34:38;95459.00;;;24.70
15680;BMP180;15488;48.114;11.532;2023-07-22T07:37:07;95463.00;;;24.70
15680;BMP180;15488;48.114;11.532;2023-07-22T07:39:34;95465.00;;;24.70
15680;BMP180;15488;48.114;11.532;2023-07-22T07:42:02;95469.00;;;24.80
15680;BMP180;15488;48.114;11.532;2023-07-22T07:44:29;95463.00;;;24.80
15680;BMP180;15488;48.114;11.532;2023-07-22T07:46:57;95458.00;;;24.80
15680;BMP180;15488;48.114;11.532;2023-07-22T07:49:24;95462.00;;;24.90
15680;BMP180;15488;48.114;11.532;2023-07-22T07:51:52;95463.00;;;24.80
15680;BMP180;15488;48.114;11.532;2023-07-22T07:54:21;95471.00;;;24.90
15680;BMP180;15488;48.114;11.532;2023-07-22T07:56:48;95470.00;;;24.90
15680;BMP180;15488;48.114;11.532;2023-07-22T07:59:16;95464.00;;;24.90
15680;BMP180;15488;48.114;11.532;2023-07-22T08:01:43;95470.00;;;24.90
15680;BMP180;15488;48.114;11.532;2023-07-22T08:04:11;95475.00;;;24.90
15680;BMP180;15488;48.114;11.532;2023-07-22T08:06:39;95466.00;;;25.00
15680;BMP180;15488;48.114;11.532;2023-07-22T08:09:07;95465.00;;;25.00
15680;BMP180;15488;48.114;11.532;2023-07-22T08:11:38;95467.00;;;25.10
15680;BMP180;15488;48.114;11.532;2023-07-22T08:14:05;95469.00;;;25.10
15680;BMP180;15488;48.114;11.532;2023-07-22T08:16:34;95465.00;;;25.10
15680;BMP180;15488;48.114;11.532;2023-07-22T08:19:01;95472.00;;;25.10
15680;BMP180;15488;48.114;11.532;2023-07-22T08:21:30;95470.00;;;25.10
15680;BMP180;15488;48.114;11.532;2023-07-22T08:23:57;95471.00;;;25.10
15680;BMP180;15488;48.114;11.532;2023-07-22T08:26:25;95465.00;;;25.10
15680;BMP180;15488;48.114;11.532;2023-07-22T08:28:54;95477.00;;;25.20
15680;BMP180;15488;48.114;11.532;2023-07-22T08:31:21;95477.00;;;25.20
15680;BMP180;15488;48.114;11.532;2023-07-22T08:33:49;95474.00;;;25.30
15680;BMP180;15488;48.114;11.532;2023-07-22T08:36:16;95479.00;;;25.30
15680;BMP180;15488;48.114;11.532;2023-07-22T08:38:44;95473.00;;;25.30
15680;BMP180;15488;48.114;11.532;2023-07-22T08:41:14;95462.00;;;25.30
15680;BMP180;15488;48.114;11.532;2023-07-22T08:43:45;95461.00;;;25.40
15680;BMP180;15488;48.114;11.532;2023-07-22T08:46:16;95473.00;;;25.40
15680;BMP180;15488;48.114;11.532;2023-07-22T08:48:47;95470.00;;;25.40
15680;BMP180;15488;48.114;11.532;2023-07-22T08:51:17;95463.00;;;25.40
15680;BMP180;15488;48.114;11.532;2023-07-22T08:53:45;95463.00;;;25.50
15680;BMP180;15488;48.114;11.532;2023-07-22T08:56:13;95464.00;;;25.50
15680;BMP180;15488;48.114;11.532;2023-07-22T08:58:42;95462.00;;;25.50
15680;BMP180;15488;48.114;11.532;2023-07-22T09:01:11;95463.00;;;25.60
15680;BMP180;15488;48.114;11.532;2023-07-22T09:03:40;95468.00;;;25.50
15680;BMP180;15488;48.114;11.532;2023-07-22T09:06:08;95465.00;;;25.50
15680;BMP180;15488;48.114;11.532;2023-07-22T09:08:35;95465.00;;;25.60
15680;BMP180;15488;48.114;11.532;2023-07-22T09:11:04;95463.00;;;25.60
15680;BMP180;15488;48.114;11.532;2023-07-22T09:13:33;95461.00;;;25.60
15680;BMP180;15488;48.114;11.532;2023-07-22T09:16:01;95412.00;;;25.70
15680;BMP180;15488;48.114;11.532;2023-07-22T09:18:29;95452.00;;;25.70
15680;BMP180;15488;48.114;11.532;2023-07-22T09:21:00;95459.00;;;25.70
15680;BMP180;15488;48.114;11.532;2023-07-22T09:23:33;95460.00;;;25.80
15680;BMP180;15488;48.114;11.532;2023-07-22T09:26:09;95453.00;;;25.90
15680;BMP180;15488;48.114;11.532;2023-07-22T09:28:48;95460.00;;;26.00
15680;BMP180;15488;48.114;11.532;2023-07-22T09:31:16;95451.00;;;26.00
15680;BMP180;15488;48.114;11.532;2023-07-22T09:33:43;95458.00;;;26.10
15680;BMP180;15488;48.114;11.532;2023-07-22T09:36:12;95449.00;;;26.10
15680;BMP180;15488;48.114;11.532;2023-07-22T09:38:40;95446.00;;;26.20
15680;BMP180;15488;48.114;11.532;2023-07-22T09:41:08;95441.00;;;26.30
15680;BMP180;15488;48.114;11.532;2023-07-22T09:43:39;95446.00;;;26.40
15680;BMP180;15488;48.114;11.532;2023-07-22T09:46:08;95436.00;;;26.40
15680;BMP180;15488;48.114;11.532;2023-07-22T09:48:42;95440.00;;;26.40
15680;BMP180;15488;48.114;11.532;2023-07-22T09:51:16;95444.00;;;26.50
15680;BMP180;15488;48.114;11.532;2023-07-22T09:53:47;95438.00;;;26.60
15680;BMP180;15488;48.114;11.532;2023-07-22T09:56:15;95441.00;;;26.70
15680;BMP180;15488;48.114;11.532;2023-07-22T09:58:45;95438.00;;;26.70
15680;BMP180;15488;48.114;11.532;2023-07-22T10:01:13;95433.00;;;26.70
15680;BMP180;15488;48.114;11.532;2023-07-22T10:03:43;95438.00;;;26.70
15680;BMP180;15488;48.114;11.532;2023-07-22T10:06:14;95436.00;;;26.70
15680;BMP180;15488;48.114;11.532;2023-07-22T10:08:44;95430.00;;;26.80
15680;BMP180;15488;48.114;11.532;2023-07-22T10:11:15;95434.00;;;26.90
15680;BMP180;15488;48.114;11.532;2023-07-22T10:13:42;95432.00;;;26.90
15680;BMP180;15488;48.114;11.532;2023-07-22T10:16:11;95436.00;;;26.90
15680;BMP180;15488;48.114;11.532;2023-07-22T10:18:39;95427.00;;;27.00
15680;BMP180;15488;48.114;11.532;2023-07-22T10:21:09;95434.00;;;27.00
15680;BMP180;15488;48.114;11.532;2023-07-22T10:23:39;95430.00;;;27.00
15680;BMP180;15488;48.114;11.532;2023-07-22T10:26:07;95416.00;;;27.20
15680;BMP180;15488;48.114;11.532;2023-07-22T10:28:37;95424.00;;;27.20
15680;BMP180;15488;48.114;11.532;2023-07-22T10:31:06;95425.00;;;27.30
15680;BMP180;15488;48.114;11.532;2023-07-22T10:33:35;95430.00;;;27.40
15680;BMP180;15488;48.114;11.532;2023-07-22T10:36:04;95424.00;;;27.40
15680;BMP180;15488;48.114;11.532;2023-07-22T10:38:32;95420.00;;;27.50
15680;BMP180;15488;48.114;11.532;2023-07-22T10:41:11;95421.00;;;27.60
15680;BMP180;15488;48.114;11.532;2023-07-22T10:43:40;95415.00;;;27.50
15680;BMP180;15488;48.114;11.532;2023-07-22T10:46:10;95415.00;;;27.50
15680;BMP180;15488;48.114;11.532;2023-07-22T10:48:39;95425.00;;;27.60
15680;BMP180;15488;48.114;11.532;2023-07-22T10:51:11;95420.00;;;27.80
15680;BMP180;15488;48.114;11.532;2023-07-22T10:53:42;95415.00;;;27.90
15680;BMP180;15488;48.114;11.532;2023-07-22T10:56:16;95419.00;;;28.00
15680;BMP180;15488;48.114;11.532;2023-07-22T10:59:01;95415.00;;;28.00
15680;BMP180;15488;48.114;11.532;2023-07-22T11:01:43;95398.00;;;28.10
15680;BMP180;15488;48.114;11.532;2023-07-22T11:04:14;95393.00;;;28.20
15680;BMP180;15488;48.114;11.532;2023-07-22T11:06:53;95399.00;;;28.40
15680;BMP180;15488;48.114;11.532;2023-07-22T11:09:40;95396.00;;;28.60
15680;BMP180;15488;48.114;11.532;2023-07-22T11:12:13;95397.00;;;28.60
15680;BMP180;15488;48.114;11.532;2023-07-22T11:14:47;95388.00;;;28.60
15680;BMP180;15488;48.114;11.532;2023-07-22T11:17:15;95388.00;;;28.60
15680;BMP180;15488;48.114;11.532;2023-07-22T11:19:45;95390.00;;;28.60
15680;BMP180;15488;48.114;11.532;2023-07-22T11:22:15;95385.00;;;28.70
15680;BMP180;15488;48.114;11.532;2023-07-22T11:24:45;95384.00;;;28.70
15680;BMP180;15488;48.114;11.532;2023-07-22T11:27:14;95383.00;;;28.80
15680;BMP180;15488;48.114;11.532;2023-07-22T11:29:42;95372.00;;;28.70
15680;BMP180;15488;48.114;11.532;2023-07-22T11:32:15;95369.00;;;28.80
15680;BMP180;15488;48.114;11.532;2023-07-22T11:34:43;95377.00;;;28.80
15680;BMP180;15488;48.114;11.532;2023-07-22T11:37:12;95356.00;;;28.90
15680;BMP180;15488;48.114;11.532;2023-07-22T11:39:41;95358.00;;;29.00
15680;BMP180;15488;48.114;11.532;2023-07-22T11:42:10;95367.00;;;29.00
15680;BMP180;15488;48.114;11.532;2023-07-22T11:44:39;95360.00;;;29.10
15680;BMP180;15488;48.114;11.532;2023-07-22T11:47:08;95358.00;;;29.20
15680;BMP180;15488;48.114;11.532;2023-07-22T11:49:36;95362.00;;;29.30
15680;BMP180;15488;48.114;11.532;2023-07-22T11:52:05;95356.00;;;29.40
15680;BMP180;15488;48.114;11.532;2023-07-22T11:54:34;95337.00;;;29.50
15680;BMP180;15488;48.114;11.532;2023-07-22T11:57:13;95340.00;;;29.60
15680;BMP180;15488;48.114;11.532;2023-07-22T11:59:44;95352.00;;;29.80
15680;BMP180;15488;48.114;11.532;2023-07-22T12:02:13;95344.00;;;30.00
15680;BMP180;15488;48.114;11.532;2023-07-22T12:04:41;95331.00;;;29.90
15680;BMP180;15488;48.114;11.532;2023-07-22T12:07:22;95341.00;;;30.00
15680;BMP180;15488;48.114;11.532;2023-07-22T12:09:50;95325.00;;;30.10
15680;BMP180;15488;48.114;11.532;2023-07-22T12:12:18;95324.00;;;30.20
15680;BMP180;15488;48.114;11.532;2023-07-22T12:14:47;95330.00;;;30.40
15680;BMP180;15488;48.114;11.532;2023-07-22T12:17:15;95331.00;;;30.50
15680;BMP180;15488;48.114;11.532;2023-07-22T12:19:51;95332.00;;;30.70
15680;BMP180;15488;48.114;11.532;2023-07-22T12:22:19;95322.00;;;30.90
15680;BMP180;15488;48.114;11.532;2023-07-22T12:24:47;95311.00;;;31.00
15680;BMP180;15488;48.114;11.532;2023-07-22T12:27:15;95324.00;;;31.20
15680;BMP180;15488;48.114;11.532;2023-07-22T12:29:43;95321.00;;;31.30
15680;BMP180;15488;48.114;11.532;2023-07-22T12:32:12;95324.00;;;31.50
15680;BMP180;15488;48.114;11.532;2023-07-22T12:34:39;95315.00;;;31.60
15680;BMP180;15488;48.114;11.532;2023-07-22T12:37:07;95320.00;;;31.80
15680;BMP180;15488;48.114;11.532;2023-07-22T12:39:34;95316.00;;;31.80
15680;BMP180;15488;48.114;11.532;2023-07-22T12:42:01;95328.00;;;31.90
15680;BMP180;15488;48.114;11.532;2023-07-22T12:44:29;95322.00;;;31.90
15680;BMP180;15488;48.114;11.532;2023-07-22T12:46:56;95328.00;;;32.00
15680;BMP180;15488;48.114;11.532;2023-07-22T12:49:26;95317.00;;;32.00
15680;BMP180;15488;48.114;11.532;2023-07-22T12:51:53;95316.00;;;32.00
15680;BMP180;15488;48.114;11.532;2023-07-22T12:54:21;95318.00;;;32.10
15680;BMP180;15488;48.114;11.532;2023-07-22T12:56:49;95311.00;;;32.20
15680;BMP180;15488;48.114;11.532;2023-07-22T12:59:16;95305.00;;;32.50
15680;BMP180;15488;48.114;11.532;2023-07-22T13:01:44;95313.00;;;32.60
15680;BMP180;15488;48.114;11.532;2023-07-22T13:04:11;95315.00;;;32.60
15680;BMP180;15488;48.114;11.532;2023-07-22T13:06:40;95307.00;;;32.60
15680;BMP180;15488;48.114;11.532;2023-07-22T13:09:07;95302.00;;;32.60
15680;BMP180;15488;48.114;11.532;2023-07-22T13:11:35;95305.00;;;32.70
15680;BMP180;15488;48.114;11.532;2023-07-22T13:14:03;95300.00;;;32.80
15680;BMP180;15488;48.114;11.532;2023-07-22T13:16:30;95293.00;;;32.90
15680;BMP180;15488;48.114;11.532;2023-07-22T13:18:58;95295.00;;;33.00
15680;BMP180;15488;48.114;11.532;2023-07-22T13:21:26;95292.00;;;33.10
15680;BMP180;15488;48.114;11.532;2023-07-22T13:23:55;95288.00;;;33.10
15680;BMP180;15488;48.114;11.532;2023-07-22T13:26:23;95292.00;;;33.20
15680;BMP180;15488;48.114;11.532;2023-07-22T13:28:50;95301.00;;;33.30
15680;BMP180;15488;48.114;11.532;2023-07-22T13:31:18;95304.00;;;33.40
15680;BMP180;15488;48.114;11.532;2023-07-22T13:33:46;95296.00;;;33.40
15680;BMP180;15488;48.114;11.532;2023-07-22T13:36:13;95288.00;;;33.60
15680;BMP180;15488;48.114;11.532;2023-07-22T13:38:41;95296.00;;;33.90
15680;BMP180;15488;48.114;11.532;2023-07-22T13:41:10;95294.00;;;34.50
15680;BMP180;15488;48.114;11.532;2023-07-22T13:43:37;95285.00;;;35.10
15680;BMP180;15488;48.114;11.532;2023-07-22T13:46:04;95294.00;;;36.10
15680;BMP180;15488;48.114;11.532;2023-07-22T13:48:32;95300.00;;;36.90
15680;BMP180;15488;48.114;11.532;2023-07-22T13:50:59;95288.00;;;37.80
15680;BMP180;15488;48.114;11.532;2023-07-22T13:53:27;95287.00;;;38.60
15680;BMP180;15488;48.114;11.532;2023-07-22T13:55:54;95294.00;;;39.50
15680;BMP180;15488;48.114;11.532;2023-07-22T13:58:23;95296.00;;;40.00
15680;BMP180;15488;48.114;11.532;2023-07-22T14:00:51;95290.00;;;40.00
15680;BMP180;15488;48.114;11.532;2023-07-22T14:03:21;95293.00;;;40.00
15680;BMP180;15488;48.114;11.532;2023-07-22T14:05:48;95294.00;;;39.70